createdAt,value
2022-11-17T00:01:19.597Z,2.60
2022-11-17T00:04:09.809Z,2.20
2022-11-17T00:07:00.589Z,2.60
2022-11-17T00:09:51.125Z,2.50
2022-11-17T00:12:59.241Z,2.70
2022-11-17T00:15:49.613Z,2.40
2022-11-17T00:18:57.388Z,2.60
2022-11-17T00:21:47.244Z,2.40
2022-11-17T00:24:37.592Z,2.60
2022-11-17T00:27:28.033Z,3.00
2022-11-17T00:30:32.762Z,2.70
2022-11-17T00:33:40.530Z,2.70
2022-11-17T00:36:30.481Z,2.50
2022-11-17T00:39:23.170Z,2.80
2022-11-17T00:42:13.150Z,2.90
2022-11-17T00:45:02.944Z,3.10
2022-11-17T00:47:52.620Z,2.80
2022-11-17T00:50:42.189Z,2.90
2022-11-17T00:53:32.574Z,2.80
2022-11-17T00:56:23.359Z,3.00
2022-11-17T00:59:13.077Z,2.70
2022-11-17T01:02:03.102Z,2.70
2022-11-17T01:04:52.809Z,2.90
2022-11-17T01:07:42.868Z,2.80
2022-11-17T01:10:32.428Z,2.90
2022-11-17T01:13:22.409Z,2.90
2022-11-17T01:16:14.667Z,2.60
2022-11-17T01:19:05.698Z,2.80
2022-11-17T01:21:56.418Z,2.50
2022-11-17T01:24:46.026Z,2.40
2022-11-17T01:27:36.146Z,2.80
2022-11-17T01:30:26.831Z,2.70
2022-11-17T01:33:16.863Z,2.60
2022-11-17T01:36:10.068Z,2.60
2022-11-17T01:39:00.325Z,2.50
2022-11-17T01:41:50.404Z,2.50
2022-11-17T01:45:00.100Z,2.80
2022-11-17T01:47:54.217Z,2.60
2022-11-17T01:50:49.776Z,3.00
2022-11-17T01:53:39.835Z,2.50
2022-11-17T01:56:38.992Z,2.60
2022-11-17T01:59:33.911Z,2.40
2022-11-17T02:02:24.657Z,2.70
2022-11-17T02:05:24.319Z,2.50
2022-11-17T02:08:16.321Z,2.40
2022-11-17T02:11:12.030Z,2.80
2022-11-17T02:14:03.709Z,2.80
2022-11-17T02:16:54.401Z,2.60
2022-11-17T02:19:48.892Z,2.50
2022-11-17T02:23:26.163Z,2.80
2022-11-17T02:26:54.726Z,2.60
2022-11-17T02:29:50.223Z,2.70
2022-11-17T02:32:48.922Z,2.70
2022-11-17T02:35:50.767Z,2.50
2022-11-17T02:38:45.577Z,2.60
2022-11-17T02:41:45.039Z,2.60
2022-11-17T02:44:40.006Z,2.60
2022-11-17T02:47:34.055Z,2.30
2022-11-17T02:50:28.623Z,2.30
2022-11-17T02:53:19.978Z,2.30
2022-11-17T02:56:10.437Z,2.20
2022-11-17T02:59:04.809Z,2.60
2022-11-17T03:02:35.289Z,2.50
2022-11-17T03:05:32.633Z,2.50
2022-11-17T03:08:33.155Z,2.30
2022-11-17T03:11:31.562Z,2.50
2022-11-17T03:14:28.598Z,2.30
2022-11-17T03:17:23.450Z,2.20
2022-11-17T03:20:20.776Z,2.20
2022-11-17T03:23:15.383Z,2.30
2022-11-17T03:26:10.075Z,2.40
2022-11-17T03:29:01.102Z,2.60
2022-11-17T03:31:56.685Z,2.50
2022-11-17T03:34:52.032Z,2.50
2022-11-17T03:37:47.330Z,2.90
2022-11-17T03:40:41.302Z,2.60
2022-11-17T03:43:34.124Z,2.40
2022-11-17T03:46:26.459Z,2.30
2022-11-17T03:49:25.035Z,2.30
2022-11-17T03:52:14.818Z,2.60
2022-11-17T03:55:06.448Z,2.40
2022-11-17T03:58:00.781Z,2.40
2022-11-17T04:00:55.124Z,2.20
2022-11-17T04:03:45.507Z,2.60
2022-11-17T04:06:35.851Z,2.40
2022-11-17T04:09:25.758Z,2.40
2022-11-17T04:12:36.167Z,2.50
2022-11-17T04:15:44.254Z,2.30
2022-11-17T04:18:34.880Z,2.30
2022-11-17T04:21:25.292Z,2.60
2022-11-17T04:24:16.151Z,2.30
2022-11-17T04:27:23.782Z,2.40
2022-11-17T04:30:15.737Z,2.50
2022-11-17T04:33:05.664Z,2.50
2022-11-17T04:35:55.588Z,2.30
2022-11-17T04:38:47.412Z,2.40
2022-11-17T04:41:57.579Z,2.40
2022-11-17T04:44:47.621Z,2.80
2022-11-17T04:47:37.136Z,2.20
2022-11-17T04:50:27.078Z,2.30
2022-11-17T04:53:16.804Z,2.90
2022-11-17T04:56:08.499Z,2.20
2022-11-17T04:58:58.673Z,2.30
2022-11-17T05:01:48.936Z,2.60
2022-11-17T05:04:57.329Z,2.60
2022-11-17T05:07:47.420Z,2.60
2022-11-17T05:10:55.009Z,2.40
2022-11-17T05:13:44.843Z,2.70
2022-11-17T05:16:52.445Z,2.60
2022-11-17T05:19:44.626Z,2.40
2022-11-17T05:22:52.266Z,2.50
2022-11-17T05:25:41.934Z,2.50
2022-11-17T05:28:33.974Z,2.20
2022-11-17T05:31:24.336Z,2.30
2022-11-17T05:34:17.448Z,2.70
2022-11-17T05:37:08.149Z,2.30
2022-11-17T05:39:58.174Z,2.40
2022-11-17T05:42:51.747Z,2.30
2022-11-17T05:45:46.544Z,2.30
2022-11-17T05:48:37.312Z,2.20
2022-11-17T05:51:27.822Z,2.00
2022-11-17T05:54:18.038Z,2.10
2022-11-17T05:57:13.826Z,2.30
2022-11-17T06:00:05.777Z,2.10
2022-11-17T06:03:09.606Z,1.90
2022-11-17T06:06:00.285Z,2.10
2022-11-17T06:08:51.116Z,2.10
2022-11-17T06:11:41.475Z,2.20
2022-11-17T06:14:31.835Z,2.00
2022-11-17T06:17:27.398Z,2.30
2022-11-17T06:20:22.378Z,2.40
2022-11-17T06:23:13.992Z,2.20
2022-11-17T06:26:08.774Z,2.70
2022-11-17T06:28:59.530Z,2.40
2022-11-17T06:31:50.032Z,2.40
2022-11-17T06:34:39.747Z,1.70
2022-11-17T06:37:29.333Z,2.00
2022-11-17T06:40:20.537Z,1.80
2022-11-17T06:43:11.145Z,2.10
2022-11-17T06:46:06.821Z,2.00
2022-11-17T06:48:59.055Z,2.10
2022-11-17T06:51:49.396Z,2.00
2022-11-17T06:54:39.247Z,2.00
2022-11-17T06:57:30.824Z,2.10
2022-11-17T07:00:23.740Z,2.20
2022-11-17T07:03:15.113Z,2.20
2022-11-17T07:06:07.838Z,2.20
2022-11-17T07:08:57.798Z,1.90
2022-11-17T07:11:47.553Z,2.10
2022-11-17T07:14:37.320Z,2.10
2022-11-17T07:17:27.317Z,1.80
2022-11-17T07:20:20.314Z,2.00
2022-11-17T07:23:10.408Z,2.10
2022-11-17T07:26:00.886Z,2.10
2022-11-17T07:28:51.171Z,2.10
2022-11-17T07:31:40.951Z,1.90
2022-11-17T07:34:31.139Z,2.10
2022-11-17T07:37:21.740Z,2.10
2022-11-17T07:40:15.213Z,2.00
2022-11-17T07:43:05.128Z,2.00
2022-11-17T07:45:58.073Z,2.30
2022-11-17T07:48:48.710Z,2.30
2022-11-17T07:51:39.034Z,2.30
2022-11-17T07:54:30.048Z,2.10
2022-11-17T07:57:21.374Z,2.30
2022-11-17T08:00:14.378Z,2.20
2022-11-17T08:03:05.997Z,2.00
2022-11-17T08:05:55.539Z,2.10
2022-11-17T08:08:45.487Z,1.70
2022-11-17T08:11:35.789Z,1.90
2022-11-17T08:14:26.364Z,1.70
2022-11-17T08:17:18.083Z,2.00
2022-11-17T08:20:12.646Z,2.00
2022-11-17T08:23:02.790Z,2.10
2022-11-17T08:25:52.776Z,2.30
2022-11-17T08:28:42.562Z,2.30
2022-11-17T08:31:32.884Z,2.50
2022-11-17T08:34:22.803Z,2.30
2022-11-17T08:37:12.625Z,2.30
2022-11-17T08:40:02.263Z,2.60
2022-11-17T08:43:00.601Z,3.20
2022-11-17T08:45:52.809Z,3.20
2022-11-17T08:48:43.305Z,4.10
2022-11-17T08:51:33.424Z,2.90
2022-11-17T08:54:23.681Z,5.50
2022-11-17T08:57:13.676Z,4.30
2022-11-17T09:00:04.091Z,4.80
2022-11-17T09:02:54.317Z,4.00
2022-11-17T09:05:47.152Z,4.30
2022-11-17T09:08:56.342Z,4.30
2022-11-17T09:11:46.624Z,3.80
2022-11-17T09:14:37.224Z,3.50
2022-11-17T09:17:27.043Z,2.90
2022-11-17T09:20:17.643Z,2.70
2022-11-17T09:23:07.796Z,3.10
2022-11-17T09:25:58.909Z,3.80
2022-11-17T09:28:49.663Z,3.50
2022-11-17T09:31:40.675Z,3.10
2022-11-17T09:34:30.912Z,3.50
2022-11-17T09:37:22.682Z,3.40
2022-11-17T09:40:17.840Z,3.60
2022-11-17T09:43:20.060Z,4.00
2022-11-17T09:46:19.850Z,3.80
2022-11-17T09:49:19.750Z,3.90
2022-11-17T09:52:19.802Z,3.90
2022-11-17T09:55:22.213Z,3.30
2022-11-17T09:58:19.600Z,4.00
2022-11-17T10:01:11.735Z,4.10
2022-11-17T10:04:01.918Z,4.30
2022-11-17T10:06:53.094Z,3.80
2022-11-17T10:09:47.603Z,4.00
2022-11-17T10:12:45.925Z,3.60
2022-11-17T10:15:43.686Z,3.80
2022-11-17T10:18:38.078Z,3.30
2022-11-17T10:21:31.742Z,3.50
2022-11-17T10:24:39.606Z,3.30
2022-11-17T10:27:31.343Z,3.30
2022-11-17T10:30:26.619Z,4.60
2022-11-17T10:33:18.380Z,4.50
2022-11-17T10:36:16.574Z,4.30
2022-11-17T10:39:27.342Z,3.90
2022-11-17T10:42:24.891Z,3.70
2022-11-17T10:45:19.231Z,3.50
2022-11-17T10:48:21.296Z,3.40
2022-11-17T10:51:26.721Z,2.80
2022-11-17T10:54:24.674Z,3.90
2022-11-17T10:57:20.485Z,3.10
2022-11-17T11:00:27.577Z,3.60
2022-11-17T11:03:23.541Z,3.70
2022-11-17T11:06:26.800Z,3.30
2022-11-17T11:09:22.950Z,3.30
2022-11-17T11:12:21.502Z,3.60
2022-11-17T11:15:20.281Z,3.40
2022-11-17T11:18:14.265Z,3.50
2022-11-17T11:21:16.480Z,3.70
2022-11-17T11:24:16.470Z,3.10
2022-11-17T11:27:21.667Z,2.80
2022-11-17T11:30:16.504Z,3.10
2022-11-17T11:33:25.190Z,3.30
2022-11-17T11:36:29.772Z,2.70
2022-11-17T11:39:30.260Z,2.70
2022-11-17T11:42:54.148Z,2.60
2022-11-17T11:45:56.359Z,2.80
2022-11-17T11:48:49.575Z,2.40
2022-11-17T11:51:41.329Z,2.70
2022-11-17T11:54:42.165Z,2.50
2022-11-17T11:57:42.024Z,2.50
2022-11-17T12:00:32.560Z,2.50
2022-11-17T12:03:33.359Z,2.50
2022-11-17T12:06:43.276Z,1.70
2022-11-17T12:09:50.963Z,2.00
2022-11-17T12:12:42.321Z,2.00
2022-11-17T12:59:36.065Z,2.40
2022-11-17T13:02:49.374Z,2.60
2022-11-17T13:05:40.686Z,2.60
2022-11-17T13:08:32.141Z,2.40
2022-11-17T13:11:22.742Z,2.70
2022-11-17T13:14:16.750Z,2.60
2022-11-17T13:17:14.286Z,2.70
2022-11-17T13:20:14.120Z,2.60
2022-11-17T13:23:06.771Z,2.20
2022-11-17T13:26:11.860Z,2.50
2022-11-17T13:29:13.419Z,2.40
2022-11-17T13:32:18.694Z,2.40
2022-11-17T13:35:23.333Z,2.30
2022-11-17T13:38:22.188Z,2.30
2022-11-17T13:41:13.719Z,2.30
2022-11-17T13:44:05.651Z,2.20
2022-11-17T13:46:56.713Z,2.40
2022-11-17T13:53:04.665Z,2.10
2022-11-17T13:55:55.220Z,2.10
2022-11-17T13:58:49.037Z,2.10
2022-11-17T14:01:39.758Z,1.90
2022-11-17T14:04:29.390Z,2.00
2022-11-17T14:07:33.264Z,2.70
2022-11-17T14:10:35.582Z,2.80
2022-11-17T14:13:38.536Z,2.50
2022-11-17T14:16:36.418Z,2.50
2022-11-17T14:19:34.563Z,2.20
2022-11-17T14:22:31.710Z,2.10
2022-11-17T14:25:23.279Z,2.00
2022-11-17T14:28:17.657Z,1.90
2022-11-17T14:31:12.641Z,2.10
2022-11-17T14:34:03.063Z,2.20
2022-11-17T14:36:56.338Z,2.00
2022-11-17T14:39:46.841Z,2.10
2022-11-17T14:42:37.332Z,2.20
2022-11-17T14:45:26.963Z,2.00
2022-11-17T14:48:19.725Z,1.90
2022-11-17T14:51:10.392Z,1.80
2022-11-17T14:54:00.531Z,2.10
2022-11-17T14:56:50.595Z,2.30
2022-11-17T14:59:40.839Z,2.40
2022-11-17T15:02:31.037Z,2.80
2022-11-17T15:05:21.068Z,2.60
2022-11-17T15:08:11.446Z,2.20
2022-11-17T15:11:01.771Z,2.10
2022-11-17T15:13:52.238Z,2.20
2022-11-17T15:16:41.846Z,2.30
2022-11-17T15:19:31.481Z,2.10
2022-11-17T15:22:20.929Z,1.90
2022-11-17T15:25:11.571Z,2.20
2022-11-17T15:28:01.089Z,2.50
2022-11-17T15:30:50.797Z,2.30
2022-11-17T15:33:41.738Z,2.30
2022-11-17T15:36:32.001Z,3.50
2022-11-17T15:39:22.279Z,4.50
2022-11-17T15:42:12.830Z,3.60
2022-11-17T15:45:03.061Z,3.00
2022-11-17T15:47:53.060Z,3.70
2022-11-17T15:50:42.847Z,3.10
2022-11-17T15:53:39.949Z,3.70
2022-11-17T15:56:31.256Z,3.90
2022-11-17T15:59:21.771Z,3.40
2022-11-17T16:02:16.395Z,2.80
2022-11-17T16:05:07.781Z,3.00
2022-11-17T16:07:57.867Z,3.00
2022-11-17T16:10:48.336Z,2.80
2022-11-17T16:13:39.095Z,3.10
2022-11-17T16:16:31.473Z,3.30
2022-11-17T16:19:21.912Z,3.20
2022-11-17T16:22:12.344Z,3.00
2022-11-17T16:25:04.364Z,3.00
2022-11-17T16:27:54.623Z,2.90
2022-11-17T16:30:44.755Z,2.70
2022-11-17T16:33:35.226Z,2.70
2022-11-17T16:36:32.697Z,3.00
2022-11-17T16:39:25.973Z,3.10
2022-11-17T16:42:16.514Z,4.70
2022-11-17T16:45:08.493Z,4.70
2022-11-17T16:47:59.625Z,6.00
2022-11-17T16:50:50.247Z,6.20
2022-11-17T16:53:40.039Z,5.80
2022-11-17T16:56:30.447Z,5.30
2022-11-17T16:59:20.530Z,4.60
2022-11-17T17:02:13.786Z,4.40
2022-11-17T17:05:03.939Z,3.70
2022-11-17T17:07:54.576Z,3.90
2022-11-17T17:10:45.482Z,4.20
2022-11-17T17:13:36.543Z,4.70
2022-11-17T17:16:27.273Z,4.40
2022-11-17T17:19:18.798Z,4.40
2022-11-17T17:22:09.200Z,3.80
2022-11-17T17:24:59.176Z,3.70
2022-11-17T17:27:50.077Z,4.30
2022-11-17T17:30:40.280Z,4.10
2022-11-17T17:33:34.237Z,4.80
2022-11-17T17:36:26.375Z,4.80
2022-11-17T17:39:18.504Z,5.20
2022-11-17T17:42:09.482Z,4.80
2022-11-17T17:44:59.706Z,5.20
2022-11-17T17:47:50.232Z,4.20
2022-11-17T17:50:41.509Z,4.50
2022-11-17T17:53:32.390Z,4.60
2022-11-17T17:56:23.738Z,4.80
2022-11-17T17:59:16.131Z,4.80
2022-11-17T18:02:07.022Z,4.10
2022-11-17T18:04:57.995Z,4.40
2022-11-17T18:07:48.663Z,4.20
2022-11-17T18:10:39.769Z,4.20
2022-11-17T18:13:33.013Z,3.70
2022-11-17T18:16:24.677Z,3.70
2022-11-17T18:20:09.779Z,3.50
2022-11-17T18:22:59.723Z,3.60
2022-11-17T18:25:49.544Z,3.30
2022-11-17T18:28:40.391Z,3.40
2022-11-17T18:31:32.068Z,3.30
2022-11-17T18:34:24.415Z,3.50
2022-11-17T18:37:14.041Z,3.40
2022-11-17T18:40:04.121Z,3.40
2022-11-17T18:42:55.960Z,3.10
2022-11-17T18:45:45.457Z,3.40
2022-11-17T18:48:36.600Z,2.80
2022-11-17T18:51:28.137Z,3.50
2022-11-17T18:54:18.321Z,3.90
2022-11-17T18:57:08.489Z,4.40
2022-11-17T18:59:58.229Z,4.20
2022-11-17T19:02:49.179Z,4.50
2022-11-17T19:05:39.273Z,4.70
2022-11-17T19:08:31.413Z,4.20
2022-11-17T19:11:23.440Z,4.30
2022-11-17T19:14:13.458Z,4.50
2022-11-17T19:17:03.552Z,4.90
2022-11-17T19:19:54.505Z,5.40
2022-11-17T19:22:44.634Z,6.10
2022-11-17T19:25:36.683Z,6.10
2022-11-17T19:28:26.918Z,6.30
2022-11-17T19:31:19.364Z,7.00
2022-11-17T19:34:08.879Z,7.50
2022-11-17T19:36:59.245Z,7.20
2022-11-17T19:39:49.785Z,7.90
2022-11-17T19:42:41.963Z,8.40
2022-11-17T19:45:32.517Z,8.20
2022-11-17T19:48:23.268Z,8.00
2022-11-17T19:51:21.433Z,8.70
2022-11-17T19:54:16.795Z,7.80
2022-11-17T19:57:07.346Z,7.60
2022-11-17T19:59:57.687Z,7.50
2022-11-17T20:02:48.492Z,7.20
2022-11-17T20:05:39.712Z,6.70
2022-11-17T20:08:31.471Z,5.50
2022-11-17T20:11:23.685Z,5.40
2022-11-17T20:14:14.953Z,5.50
2022-11-17T20:17:05.434Z,5.10
2022-11-17T20:19:56.066Z,5.70
2022-11-17T20:22:46.930Z,5.70
2022-11-17T20:25:38.767Z,5.90
2022-11-17T20:28:28.911Z,6.00
2022-11-17T20:31:21.088Z,5.60
2022-11-17T20:34:14.397Z,5.10
2022-11-17T20:37:04.659Z,6.00
2022-11-17T20:39:54.671Z,6.80
2022-11-17T20:42:44.512Z,6.20
2022-11-17T20:45:34.446Z,5.60
2022-11-17T20:48:25.699Z,4.70
2022-11-17T20:51:17.950Z,5.40
2022-11-17T20:54:07.779Z,5.30
2022-11-17T20:56:57.812Z,4.50
2022-11-17T20:59:47.797Z,3.50
2022-11-17T21:02:37.844Z,3.00
2022-11-17T21:05:27.626Z,3.10
2022-11-17T21:08:17.653Z,3.20
2022-11-17T21:11:09.095Z,3.40
2022-11-17T21:13:58.942Z,3.40
2022-11-17T21:16:49.933Z,3.30
2022-11-17T21:19:39.736Z,3.10
2022-11-17T21:22:30.017Z,3.00
2022-11-17T21:25:19.819Z,3.20
2022-11-17T21:28:09.996Z,3.10
2022-11-17T21:31:10.701Z,3.20
2022-11-17T21:34:02.209Z,3.40
2022-11-17T21:36:52.088Z,3.30
2022-11-17T21:39:42.372Z,3.20
2022-11-17T21:42:33.543Z,2.80
2022-11-17T21:45:23.652Z,2.90
2022-11-17T21:48:14.603Z,2.70
2022-11-17T21:51:05.488Z,2.90
2022-11-17T21:53:57.618Z,3.20
2022-11-17T21:56:48.262Z,2.90
2022-11-17T21:59:38.238Z,3.60
2022-11-17T22:02:28.120Z,3.60
2022-11-17T22:05:18.624Z,3.70
2022-11-17T22:08:11.509Z,4.40
2022-11-17T22:11:06.509Z,4.10
2022-11-17T22:13:56.891Z,4.60
2022-11-17T22:16:49.113Z,4.90
2022-11-17T22:19:39.622Z,5.50
2022-11-17T22:22:30.363Z,6.20
2022-11-17T22:25:43.455Z,5.60
2022-11-17T22:28:31.343Z,5.70
2022-11-17T22:31:21.491Z,5.50
2022-11-17T22:34:11.867Z,5.20
2022-11-17T22:37:02.103Z,5.20
2022-11-17T22:39:52.147Z,5.30
2022-11-17T22:42:41.570Z,5.70
2022-11-17T22:45:31.595Z,6.10
2022-11-17T22:48:22.028Z,5.60
2022-11-17T22:51:13.260Z,5.70
2022-11-17T22:54:04.027Z,6.30
2022-11-17T22:56:54.663Z,6.90
2022-11-17T22:59:45.081Z,6.80
2022-11-17T23:02:35.617Z,6.50
2022-11-17T23:05:25.688Z,6.30
2022-11-17T23:08:16.591Z,8.70
2022-11-17T23:11:34.877Z,8.90
2022-11-17T23:14:18.173Z,8.80
2022-11-17T23:17:07.494Z,7.70
2022-11-17T23:19:57.623Z,7.70
2022-11-17T23:22:47.695Z,7.90
2022-11-17T23:25:37.907Z,8.20
2022-11-17T23:28:27.735Z,7.40
2022-11-17T23:31:18.880Z,7.80
2022-11-17T23:34:11.335Z,7.30
2022-11-17T23:37:03.951Z,7.90
2022-11-17T23:39:54.772Z,7.60
2022-11-17T23:42:44.394Z,7.30
2022-11-17T23:45:35.274Z,6.90
2022-11-17T23:48:26.356Z,7.10
2022-11-17T23:51:18.854Z,7.10
2022-11-17T23:54:12.912Z,7.10
2022-11-17T23:57:03.404Z,7.00
2022-11-17T23:59:53.513Z,7.90
